Time;durP1;ratioP1;P1;durP2;ratioP2;P2;SDS_P1;SDS_P2;PMS_P1;PMS_P2;Temp;Humidity;BMP_temperature;BMP_pressure;BME280_temperature;BME280_humidity;BME280_pressure;Samples;Min_cycle;Max_cycle;Signal;HPM_P1;HPM_P2
2021/07/23 00:00:06;;;;;;;3.90;3.27;;;;;;;13.63;100.00;101302.31;4934920;29;20184;-74
2021/07/23 00:02:33;;;;;;;3.73;3.40;;;;;;;13.63;100.00;101305.06;4918170;29;20231;-74
2021/07/23 00:05:03;;;;;;;5.37;3.33;;;;;;;13.65;100.00;101312.97;4918909;29;20196;-74
2021/07/23 00:07:33;;;;;;;3.53;3.23;;;;;;;13.59;100.00;101305.91;4933209;29;20720;-74
2021/07/23 00:10:01;;;;;;;3.37;3.13;;;;;;;13.48;100.00;101302.34;4918517;29;20200;-73
2021/07/23 00:12:27;;;;;;;4.23;3.20;;;;;;;13.48;100.00;101296.91;4933338;29;20697;-74
2021/07/23 00:14:55;;;;;;;4.00;3.20;;;;;;;13.44;100.00;101300.44;4917785;29;20202;-73
2021/07/23 00:17:21;;;;;;;3.40;3.07;;;;;;;13.51;100.00;101300.97;4933114;29;20715;-76
2021/07/23 00:19:48;;;;;;;3.30;3.10;;;;;;;13.51;100.00;101303.72;4918084;29;20192;-73
2021/07/23 00:22:18;;;;;;;4.50;2.87;;;;;;;13.55;100.00;101302.91;4933071;29;20666;-72
2021/07/23 00:24:44;;;;;;;4.53;3.30;;;;;;;13.55;100.00;101302.91;4918459;29;20203;-73
2021/07/23 00:27:10;;;;;;;3.47;3.17;;;;;;;13.55;100.00;101285.69;4916915;29;20238;-73
2021/07/23 00:29:38;;;;;;;4.07;3.20;;;;;;;13.50;100.00;101293.91;4917223;29;20239;-75
2021/07/23 00:32:05;;;;;;;4.60;3.10;;;;;;;13.45;100.00;101291.97;4917452;29;20266;-75
2021/07/23 00:34:31;;;;;;;3.50;3.00;;;;;;;13.48;100.00;101296.09;4934969;29;20204;-75
2021/07/23 00:36:59;;;;;;;3.50;3.20;;;;;;;13.41;100.00;101287.34;4934017;29;20294;-74
2021/07/23 00:39:27;;;;;;;3.73;3.10;;;;;;;13.24;100.00;101299.63;4933076;29;20229;-74
2021/07/23 00:41:53;;;;;;;3.80;3.10;;;;;;;13.22;100.00;101293.63;4932702;29;20227;-73
2021/07/23 00:44:22;;;;;;;3.70;3.20;;;;;;;13.29;100.00;101286.81;4917834;29;20302;-74
2021/07/23 00:46:51;;;;;;;3.40;3.10;;;;;;;13.26;100.00;101289.25;4915909;29;20256;-73
2021/07/23 00:49:19;;;;;;;4.00;3.20;;;;;;;13.05;100.00;101293.09;4901939;29;20188;-74
2021/07/23 00:51:46;;;;;;;3.50;3.20;;;;;;;13.14;100.00;101277.84;4922017;29;20239;-74
2021/07/23 00:54:15;;;;;;;4.07;3.63;;;;;;;13.08;100.00;101284.38;4917427;29;20720;-74
2021/07/23 00:56:41;;;;;;;3.87;3.30;;;;;;;12.85;100.00;101284.09;4913082;29;20227;-74
2021/07/23 00:59:07;;;;;;;4.13;3.60;;;;;;;12.83;100.00;101287.09;4932962;29;20195;-74
2021/07/23 01:01:33;;;;;;;3.37;3.03;;;;;;;12.87;100.00;101282.72;4916910;29;20215;-73
2021/07/23 01:03:59;;;;;;;6.03;3.27;;;;;;;12.84;100.00;101277.03;4917275;29;20296;-73
2021/07/23 01:06:31;;;;;;;4.30;3.20;;;;;;;12.73;100.00;101287.06;4916594;29;20267;-73
2021/07/23 01:08:59;;;;;;;3.63;3.17;;;;;;;12.81;100.00;101283.81;4917197;29;20207;-74
2021/07/23 01:11:26;;;;;;;3.37;3.10;;;;;;;12.78;100.00;101286.22;4916765;29;20225;-74
2021/07/23 01:14:00;;;;;;;3.10;2.90;;;;;;;12.75;100.00;101273.97;4918195;29;20210;-73
2021/07/23 01:16:25;;;;;;;3.40;2.80;;;;;;;12.64;100.00;101287.06;4900740;29;20227;-74
2021/07/23 01:18:54;;;;;;;3.40;3.10;;;;;;;12.53;100.00;101275.31;4932598;29;20179;-73
2021/07/23 01:21:22;;;;;;;3.50;3.20;;;;;;;12.64;100.00;101271.50;4932305;29;20575;-73
2021/07/23 01:23:48;;;;;;;3.40;3.10;;;;;;;12.77;100.00;101266.34;4916974;29;20260;-74
2021/07/23 01:26:36;;;;;;;4.27;3.33;;;;;;;12.82;100.00;101269.13;4919131;29;20606;-73
2021/07/23 01:29:05;;;;;;;5.30;2.93;;;;;;;12.73;100.00;101270.69;4916385;29;20191;-73
2021/07/23 01:31:31;;;;;;;3.27;2.97;;;;;;;12.74;100.00;101264.13;4916422;29;20223;-74
2021/07/23 01:33:57;;;;;;;3.40;3.10;;;;;;;12.63;100.00;101258.97;4932648;29;20287;-74
2021/07/23 01:36:25;;;;;;;4.73;3.40;;;;;;;12.68;100.00;101265.22;4900891;29;20834;-73
2021/07/23 01:38:55;;;;;;;3.90;3.40;;;;;;;12.70;100.00;101260.31;4932667;29;20239;-73
2021/07/23 01:41:22;;;;;;;3.33;3.00;;;;;;;12.56;100.00;101255.66;4916912;29;20705;-74
2021/07/23 01:43:48;;;;;;;3.27;2.90;;;;;;;12.56;100.00;101254.84;4916727;29;20208;-74
2021/07/23 01:46:14;;;;;;;4.40;3.10;;;;;;;12.58;100.00;101249.94;4916621;29;20251;-74
2021/07/23 01:48:42;;;;;;;3.37;2.80;;;;;;;12.57;100.00;101254.59;4916272;29;20198;-74
2021/07/23 01:51:28;;;;;;;2.67;2.47;;;;;;;12.52;100.00;101253.78;4906495;29;20227;-74
2021/07/23 01:53:54;;;;;;;2.97;2.67;;;;;;;12.37;100.00;101253.75;4931059;29;20295;-73
2021/07/23 01:56:21;;;;;;;3.30;3.03;;;;;;;12.14;100.00;101254.25;4932621;29;20314;-74
2021/07/23 01:58:48;;;;;;;3.30;3.00;;;;;;;12.27;100.00;101242.84;4921591;29;20222;-74
2021/07/23 02:01:15;;;;;;;4.13;3.20;;;;;;;12.41;100.00;101246.66;4920049;29;20225;-75
2021/07/23 02:03:53;;;;;;;5.07;3.30;;;;;;;12.46;100.00;101249.41;4904851;29;20713;-74
2021/07/23 02:06:19;;;;;;;3.83;3.43;;;;;;;12.47;100.00;101248.31;4932903;29;20223;-73
2021/07/23 02:08:47;;;;;;;3.90;3.60;;;;;;;12.33;100.00;101244.47;4930892;29;20278;-74
2021/07/23 02:11:13;;;;;;;3.93;3.53;;;;;;;12.42;100.00;101245.59;4919946;29;20231;-74
2021/07/23 02:13:41;;;;;;;3.70;3.40;;;;;;;12.49;100.00;101246.13;4936296;29;20598;-74
2021/07/23 02:16:11;;;;;;;4.13;3.70;;;;;;;12.55;100.00;101245.06;4920052;29;20216;-74
2021/07/23 02:18:39;;;;;;;3.67;3.17;;;;;;;12.54;100.00;101248.88;4935822;29;20403;-73
2021/07/23 02:21:15;;;;;;;3.97;3.00;;;;;;;12.61;100.00;101252.97;4936986;29;20663;-73
2021/07/23 02:23:40;;;;;;;3.63;2.40;;;;;;;12.37;100.00;101248.28;4920862;29;20203;-73
2021/07/23 02:26:21;;;;;;;3.07;2.87;;;;;;;12.24;100.00;101243.38;4935140;29;20239;-74
2021/07/23 02:28:49;;;;;;;3.00;2.73;;;;;;;12.07;100.00;101247.41;4913185;29;20184;-73
2021/07/23 02:31:18;;;;;;;3.10;2.77;;;;;;;12.03;100.00;101238.09;4935695;29;20231;-73
2021/07/23 02:33:58;;;;;;;3.10;2.77;;;;;;;11.91;100.00;101242.97;4928425;29;20200;-75
2021/07/23 02:36:31;;;;;;;3.13;2.70;;;;;;;11.90;100.00;101240.53;4922086;29;20361;-74
2021/07/23 02:39:05;;;;;;;3.37;3.07;;;;;;;11.74;100.00;101245.09;4920123;29;20650;-74
2021/07/23 02:41:35;;;;;;;3.17;2.97;;;;;;;11.82;100.00;101244.56;4921012;29;20250;-74
2021/07/23 02:44:07;;;;;;;2.97;2.77;;;;;;;11.77;100.00;101241.00;4919874;29;20702;-74
2021/07/23 02:46:38;;;;;;;3.27;2.97;;;;;;;11.77;100.00;101238.28;4935974;29;20356;-74
2021/07/23 02:49:05;;;;;;;4.17;3.30;;;;;;;11.78;100.00;101229.06;4927620;29;20693;-74
2021/07/23 02:51:33;;;;;;;4.17;3.80;;;;;;;11.91;100.00;101232.91;4919295;29;20231;-74
2021/07/23 02:54:02;;;;;;;3.93;3.60;;;;;;;11.99;100.00;101235.09;4913427;29;20210;-74
2021/07/23 02:56:31;;;;;;;4.63;2.90;;;;;;;11.95;100.00;101233.19;4934903;29;20306;-74
2021/07/23 02:59:00;;;;;;;4.07;3.67;;;;;;;11.91;100.00;101237.53;4919622;29;20215;-74
2021/07/23 03:01:33;;;;;;;4.00;3.70;;;;;;;11.97;100.00;101240.00;4903408;29;20721;-74
2021/07/23 03:04:01;;;;;;;3.20;2.73;;;;;;;11.79;100.00;101238.84;4920875;29;20238;-74
2021/07/23 03:06:38;;;;;;;2.83;2.63;;;;;;;11.62;100.00;101240.94;4950610;29;20269;-73
2021/07/23 03:09:04;;;;;;;3.20;2.90;;;;;;;11.62;100.00;101247.19;4934666;29;20184;-73
2021/07/23 03:11:33;;;;;;;4.27;3.10;;;;;;;11.54;100.00;101236.03;4917085;29;20749;-72
2021/07/23 03:14:05;;;;;;;4.20;3.00;;;;;;;11.51;100.00;101236.53;4926023;29;20204;-74
2021/07/23 03:16:41;;;;;;;4.17;2.93;;;;;;;11.62;100.00;101232.78;4930283;29;20721;-72
2021/07/23 03:19:09;;;;;;;3.57;2.67;;;;;;;11.56;100.00;101233.84;4907622;29;20202;-72
2021/07/23 03:21:35;;;;;;;4.00;2.50;;;;;;;11.64;100.00;101233.34;4919261;29;20698;-73
2021/07/23 03:24:05;;;;;;;3.63;3.10;;;;;;;11.68;100.00;101224.34;4919303;29;20646;-73
2021/07/23 03:26:32;;;;;;;3.57;3.17;;;;;;;11.69;100.00;101223.28;4919089;29;20227;-73
2021/07/23 03:28:59;;;;;;;3.77;3.47;;;;;;;11.86;100.00;101233.97;4933972;29;20271;-73
2021/07/23 03:31:30;;;;;;;4.30;3.23;;;;;;;11.82;100.00;101228.25;4923790;29;20328;-72
2021/07/23 03:34:06;;;;;;;3.60;2.90;;;;;;;11.88;100.00;101224.44;4936165;29;20211;-73
2021/07/23 03:36:50;;;;;;;3.00;2.80;;;;;;;11.63;100.00;101223.53;4920653;29;20601;-73
2021/07/23 03:39:26;;;;;;;5.30;3.17;;;;;;;11.66;100.00;101217.56;4919012;29;20219;-72
2021/07/23 03:41:54;;;;;;;3.43;3.00;;;;;;;11.91;100.00;101225.84;4942686;29;20239;-73
2021/07/23 03:44:19;;;;;;;3.83;2.90;;;;;;;12.04;100.00;101226.97;4934467;29;20211;-73
2021/07/23 03:46:51;;;;;;;3.40;3.00;;;;;;;11.96;100.00;101219.31;4937173;29;20307;-72
2021/07/23 03:49:17;;;;;;;3.43;2.87;;;;;;;11.95;100.00;101222.31;4937394;28;20276;-73
2021/07/23 03:51:55;;;;;;;3.30;2.97;;;;;;;12.03;100.00;101228.06;4935345;29;20259;-73
2021/07/23 03:54:27;;;;;;;3.47;2.93;;;;;;;12.14;100.00;101218.84;4911870;29;20223;-72
2021/07/23 03:56:52;;;;;;;3.30;3.00;;;;;;;12.28;100.00;101221.84;4933544;29;20215;-73
2021/07/23 03:59:21;;;;;;;3.30;2.97;;;;;;;12.39;100.00;101216.97;4943777;29;20179;-72
2021/07/23 04:01:58;;;;;;;3.63;3.33;;;;;;;12.55;100.00;101223.25;4919183;29;20274;-73
2021/07/23 04:04:24;;;;;;;4.83;3.20;;;;;;;12.35;100.00;101223.22;4935683;29;20207;-72
2021/07/23 04:07:01;;;;;;;3.20;3.00;;;;;;;12.53;100.00;101220.00;4911305;29;20215;-73
2021/07/23 04:09:29;;;;;;;3.20;2.90;;;;;;;12.68;100.00;101221.63;4934939;29;20187;-73
2021/07/23 04:11:56;;;;;;;3.87;3.50;;;;;;;12.69;100.00;101220.53;4929686;29;20220;-72
2021/07/23 04:14:27;;;;;;;5.53;3.87;;;;;;;12.86;100.00;101221.13;4930956;29;20708;-73
2021/07/23 04:16:56;;;;;;;4.87;4.37;;;;;;;13.08;100.00;101224.38;4918327;29;20227;-73
2021/07/23 04:19:22;;;;;;;4.27;3.87;;;;;;;12.93;100.00;101221.66;4902243;29;20184;-73
2021/07/23 04:22:06;;;;;;;5.90;4.27;;;;;;;13.20;100.00;101222.16;4931758;29;20211;-74
2021/07/23 04:24:54;;;;;;;4.30;3.90;;;;;;;13.41;100.00;101218.31;4934655;29;20203;-74
2021/07/23 04:27:23;;;;;;;4.87;3.70;;;;;;;13.47;100.00;101221.56;4917515;29;20302;-74
2021/07/23 04:30:06;;;;;;;3.90;3.50;;;;;;;13.61;100.00;101219.88;4906234;29;20560;-73
2021/07/23 04:32:52;;;;;;;3.97;3.57;;;;;;;13.63;100.00;101216.88;4920936;29;20291;-74
2021/07/23 04:35:20;;;;;;;4.50;4.10;;;;;;;13.54;100.00;101226.75;4913499;29;20299;-74
2021/07/23 04:37:49;;;;;;;5.07;3.60;;;;;;;13.61;100.00;101219.88;4933447;29;21075;-74
2021/07/23 04:40:23;;;;;;;5.77;3.90;;;;;;;13.68;100.00;101217.69;4919837;29;20321;-73
2021/07/23 04:42:49;;;;;;;3.80;3.50;;;;;;;13.76;100.00;101219.81;4917903;29;20670;-73
2021/07/23 04:45:15;;;;;;;4.33;3.57;;;;;;;13.87;100.00;101213.22;4932853;29;20204;-74
2021/07/23 04:47:52;;;;;;;4.47;3.77;;;;;;;13.72;100.00;101210.56;4929323;29;20194;-74
2021/07/23 04:50:23;;;;;;;4.50;4.00;;;;;;;13.78;100.00;101223.09;4932792;29;20196;-73
2021/07/23 04:53:07;;;;;;;4.90;4.17;;;;;;;13.84;100.00;101222.81;4889664;29;20220;-74
2021/07/23 04:56:05;;;;;;;4.13;3.67;;;;;;;14.04;100.00;101230.91;4944199;29;20242;-74
2021/07/23 04:58:33;;;;;;;3.97;3.30;;;;;;;14.20;100.00;101228.94;4919076;29;20192;-73
2021/07/23 05:00:59;;;;;;;4.63;3.30;;;;;;;14.23;100.00;101232.75;4922271;29;20720;-73
2021/07/23 05:03:32;;;;;;;4.30;3.80;;;;;;;14.34;100.00;101228.84;4897687;29;20184;-73
2021/07/23 05:05:57;;;;;;;3.80;3.50;;;;;;;14.47;100.00;101221.91;4932592;29;20238;-73
2021/07/23 05:08:23;;;;;;;4.97;3.80;;;;;;;14.46;100.00;101232.03;4901397;29;20646;-73
2021/07/23 05:10:49;;;;;;;5.10;3.70;;;;;;;14.57;100.00;101225.41;4932881;29;20239;-72
2021/07/23 05:13:19;;;;;;;4.53;3.63;;;;;;;14.49;100.00;101231.50;4919522;29;20187;-73
2021/07/23 05:15:45;;;;;;;5.23;4.07;;;;;;;14.52;100.00;101222.69;4903923;29;20223;-73
2021/07/23 05:18:11;;;;;;;5.27;3.90;;;;;;;14.43;100.00;101227.16;4934101;29;20190;-72
2021/07/23 05:20:39;;;;;;;5.70;5.20;;;;;;;14.53;100.00;101221.59;4934005;29;20216;-73
2021/07/23 05:23:07;;;;;;;5.37;4.10;;;;;;;14.70;100.00;101230.22;4934675;29;20184;-72
2021/07/23 05:25:36;;;;;;;9.87;4.50;;;;;;;14.72;100.00;101219.81;4933380;28;20228;-75
2021/07/23 05:28:02;;;;;;;5.27;4.77;;;;;;;14.55;100.00;101215.88;4918925;29;20203;-73
2021/07/23 05:30:27;;;;;;;4.90;4.40;;;;;;;14.66;100.00;101227.25;4918269;29;20228;-74
2021/07/23 05:32:54;;;;;;;5.23;4.23;;;;;;;14.66;100.00;101213.56;4933871;29;20306;-73
2021/07/23 05:35:19;;;;;;;5.20;4.20;;;;;;;14.72;100.00;101211.63;4916807;28;20214;-72
2021/07/23 05:37:46;;;;;;;5.27;4.40;;;;;;;14.99;100.00;101212.75;4916812;29;20207;-74
2021/07/23 05:40:17;;;;;;;5.83;4.60;;;;;;;14.65;100.00;101220.16;4911473;28;20215;-73
2021/07/23 05:42:45;;;;;;;10.90;9.70;;;;;;;15.12;100.00;101206.59;4915741;29;20216;-74
2021/07/23 05:45:11;;;;;;;4.65;4.25;;;;;;;15.29;100.00;101201.53;4928173;29;20211;-74
2021/07/23 05:47:36;;;;;;;5.40;4.90;;;;;;;15.04;100.00;101199.84;4916804;29;20198;-74
2021/07/23 05:50:05;;;;;;;7.72;5.75;;;;;;;15.12;100.00;101204.69;4929648;28;20179;-75
2021/07/23 05:52:33;;;;;;;6.73;5.70;;;;;;;14.99;100.00;101208.09;4916358;29;20223;-73
2021/07/23 05:55:01;;;;;;;7.85;5.88;;;;;;;15.10;100.00;101209.63;4913998;29;20215;-75
2021/07/23 05:57:27;;;;;;;6.50;5.90;;;;;;;15.08;100.00;101205.56;4918148;29;20698;-72
2021/07/23 05:59:52;;;;;;;9.50;6.57;;;;;;;15.21;100.00;101200.25;4946276;28;20194;-72
2021/07/23 06:02:18;;;;;;;6.93;6.23;;;;;;;15.12;100.00;101212.88;4914452;29;20337;-73
2021/07/23 06:04:46;;;;;;;6.80;6.10;;;;;;;15.33;100.00;101213.53;4914953;29;20271;-72
2021/07/23 06:07:14;;;;;;;7.27;6.60;;;;;;;15.23;100.00;101206.25;4931452;28;20230;-73
2021/07/23 06:09:42;;;;;;;8.60;7.47;;;;;;;15.48;100.00;101206.00;4900135;29;20278;-73
2021/07/23 06:12:07;;;;;;;8.23;7.20;;;;;;;15.57;100.00;101201.50;4915321;29;20285;-74
2021/07/23 06:14:36;;;;;;;8.57;7.00;;;;;;;15.56;100.00;101208.88;4916606;29;20742;-73
2021/07/23 06:17:04;;;;;;;7.80;7.00;;;;;;;15.58;100.00;101203.94;4916868;29;20220;-72
2021/07/23 06:19:32;;;;;;;7.73;7.00;;;;;;;15.74;100.00;101205.41;4933309;29;20194;-74
2021/07/23 06:22:00;;;;;;;8.07;7.20;;;;;;;15.75;100.00;101207.03;4931981;29;20222;-73
2021/07/23 06:24:26;;;;;;;7.80;7.10;;;;;;;15.95;100.00;101207.59;4901199;29;20208;-73
2021/07/23 06:26:51;;;;;;;8.45;7.50;;;;;;;16.24;100.00;101208.31;4915863;29;20223;-72
2021/07/23 06:29:17;;;;;;;8.15;7.00;;;;;;;16.43;100.00;101214.66;4900441;29;20188;-73
2021/07/23 06:31:43;;;;;;;8.05;7.28;;;;;;;16.41;100.00;101208.59;4931937;29;20764;-73
2021/07/23 06:34:09;;;;;;;9.43;6.70;;;;;;;16.14;100.00;101211.19;4916619;29;21067;-73
2021/07/23 06:36:35;;;;;;;7.45;6.75;;;;;;;16.12;100.00;101212.59;4900282;29;20231;-74
2021/07/23 06:39:00;;;;;;;8.05;6.93;;;;;;;16.55;100.00;101218.53;4916131;29;20230;-74
2021/07/23 06:41:31;;;;;;;8.23;7.43;;;;;;;16.51;100.00;101211.22;4931670;29;20227;-75
2021/07/23 06:43:58;;;;;;;8.82;7.93;;;;;;;16.70;100.00;101219.13;4933432;29;20720;-73
2021/07/23 06:46:26;;;;;;;9.18;8.18;;;;;;;17.11;100.00;101222.84;4934354;29;20777;-73
2021/07/23 06:48:52;;;;;;;8.50;7.53;;;;;;;16.97;100.00;101211.00;4936447;29;20188;-75
2021/07/23 06:51:18;;;;;;;9.05;7.32;;;;;;;17.36;100.00;101207.56;4934995;29;20286;-74
2021/07/23 06:53:43;;;;;;;10.13;7.72;;;;;;;17.62;100.00;101211.47;4935585;29;20208;-74
2021/07/23 06:56:09;;;;;;;9.85;7.95;;;;;;;17.65;100.00;101210.81;4934822;29;20231;-75
2021/07/23 06:58:35;;;;;;;10.73;7.90;;;;;;;17.69;100.00;101213.78;4934741;29;20207;-74
2021/07/23 07:01:05;;;;;;;8.98;7.53;;;;;;;17.89;100.00;101208.69;4950914;29;20231;-74
2021/07/23 07:03:30;;;;;;;8.80;7.40;;;;;;;17.67;100.00;101205.03;4919627;29;20274;-74
2021/07/23 07:05:58;;;;;;;9.40;7.70;;;;;;;17.80;100.00;101216.03;4935976;29;20235;-75
2021/07/23 07:08:24;;;;;;;9.82;7.82;;;;;;;18.02;100.00;101221.59;4928017;29;20184;-74
2021/07/23 07:10:49;;;;;;;7.97;7.25;;;;;;;18.08;100.00;101221.22;4918972;29;20274;-74
2021/07/23 07:13:17;;;;;;;8.73;7.15;;;;;;;17.83;100.00;101226.41;4935053;29;20620;-74
2021/07/23 07:15:46;;;;;;;10.27;7.72;;;;;;;17.93;100.00;101232.53;4934645;29;20226;-75
2021/07/23 07:18:11;;;;;;;9.15;8.23;;;;;;;18.26;100.00;101223.84;4934580;29;20184;-74
2021/07/23 07:20:37;;;;;;;10.35;8.35;;;;;;;18.25;100.00;101224.97;4919025;29;20231;-74
2021/07/23 07:23:03;;;;;;;8.90;8.10;;;;;;;18.34;100.00;101227.81;4935149;29;20176;-74
2021/07/23 07:25:31;;;;;;;9.23;8.20;;;;;;;18.74;100.00;101230.44;4934287;29;20600;-73
2021/07/23 07:28:00;;;;;;;8.95;8.05;;;;;;;18.36;100.00;101231.06;4950660;29;20184;-73
2021/07/23 07:30:28;;;;;;;9.77;7.97;;;;;;;18.63;100.00;101229.88;4934847;29;20220;-73
2021/07/23 07:32:53;;;;;;;9.48;7.85;;;;;;;19.11;100.00;101228.16;4919770;29;20267;-73
2021/07/23 07:35:19;;;;;;;8.05;7.22;;;;;;;19.00;100.00;101219.31;4935176;28;20241;-73
2021/07/23 07:37:47;;;;;;;10.55;8.18;;;;;;;19.18;100.00;101218.31;4910989;29;20234;-74
2021/07/23 07:40:13;;;;;;;8.38;7.50;;;;;;;19.35;100.00;101224.72;4934511;29;20603;-74
2021/07/23 07:42:42;;;;;;;9.30;7.65;;;;;;;19.33;100.00;101228.94;4950313;29;20210;-73
2021/07/23 07:45:08;;;;;;;8.05;7.13;;;;;;;19.23;100.00;101220.97;4917844;28;20690;-74
2021/07/23 07:47:36;;;;;;;7.70;7.00;;;;;;;19.33;100.00;101220.69;4950512;29;20331;-73
2021/07/23 07:50:05;;;;;;;7.25;6.63;;;;;;;19.62;100.00;101212.72;4914867;29;20177;-73
2021/07/23 07:52:30;;;;;;;8.45;6.70;;;;;;;19.44;100.00;101217.31;4915464;29;20324;-73
2021/07/23 07:54:58;;;;;;;7.50;6.65;;;;;;;19.80;100.00;101213.28;4915893;29;20208;-74
2021/07/23 07:57:24;;;;;;;6.68;5.93;;;;;;;19.44;100.00;101205.50;4914205;29;20232;-74
2021/07/23 07:59:50;;;;;;;6.25;5.65;;;;;;;19.47;100.00;101216.72;4915828;29;20557;-75
2021/07/23 08:02:17;;;;;;;5.60;5.07;;;;;;;19.08;100.00;101204.81;4933900;29;20219;-76
2021/07/23 08:04:45;;;;;;;6.30;5.45;;;;;;;19.34;100.00;101211.28;4935798;29;20569;-73
2021/07/23 08:07:11;;;;;;;7.93;5.88;;;;;;;19.25;100.00;101218.69;4918106;29;20228;-74
2021/07/23 08:09:51;;;;;;;6.85;5.50;;;;;;;19.59;100.00;101203.13;4933869;29;20191;-74
2021/07/23 08:12:19;;;;;;;6.32;4.97;;;;;;;19.65;100.00;101214.81;4933554;29;20307;-74
2021/07/23 08:14:47;;;;;;;6.45;5.00;;;;;;;19.62;100.00;101204.44;4918085;29;20199;-73
2021/07/23 08:17:15;;;;;;;5.07;4.53;;;;;;;20.00;100.00;101201.69;4918362;29;20231;-73
2021/07/23 08:19:41;;;;;;;5.93;4.43;;;;;;;20.11;100.00;101205.78;4933515;29;20565;-74
2021/07/23 08:22:09;;;;;;;4.88;4.45;;;;;;;20.08;100.00;101200.88;4933499;29;20310;-75
2021/07/23 08:24:34;;;;;;;4.90;4.35;;;;;;;19.72;100.00;101205.78;4910778;29;20663;-74
2021/07/23 08:27:00;;;;;;;5.43;4.28;;;;;;;19.43;100.00;101203.84;4933101;29;20310;-74
2021/07/23 08:29:26;;;;;;;5.25;4.75;;;;;;;19.48;100.00;101201.78;4933517;29;20199;-74
2021/07/23 08:31:54;;;;;;;5.60;4.00;;;;;;;19.11;100.00;101197.84;4917434;29;20311;-75
2021/07/23 08:34:20;;;;;;;3.67;3.38;;;;;;;19.40;100.00;101199.00;4933888;29;20295;-73
2021/07/23 08:36:48;;;;;;;4.22;3.58;;;;;;;19.17;100.00;101199.34;4917393;29;20223;-76
2021/07/23 08:39:13;;;;;;;4.07;3.40;;;;;;;19.17;100.00;101200.16;4933700;29;20183;-76
2021/07/23 08:41:39;;;;;;;4.13;3.17;;;;;;;19.12;100.00;101203.06;4901543;29;20575;-75
2021/07/23 08:44:04;;;;;;;3.38;3.08;;;;;;;19.54;100.00;101194.19;4918002;29;20262;-74
2021/07/23 08:46:31;;;;;;;3.22;2.92;;;;;;;19.55;100.00;101201.34;4917200;29;20228;-74
2021/07/23 08:48:57;;;;;;;4.68;3.45;;;;;;;19.94;100.00;101210.41;4933301;29;20190;-74
2021/07/23 08:51:23;;;;;;;2.92;2.47;;;;;;;19.21;100.00;101205.84;4932611;29;20639;-73
2021/07/23 08:53:51;;;;;;;4.28;3.28;;;;;;;18.61;100.00;101214.78;4918059;29;20211;-73
2021/07/23 08:56:17;;;;;;;4.25;2.90;;;;;;;18.25;100.00;101207.66;4917718;29;20255;-75
2021/07/23 08:58:43;;;;;;;4.53;3.50;;;;;;;17.70;100.00;101210.75;4933737;29;20188;-74
2021/07/23 09:01:08;;;;;;;5.28;3.60;;;;;;;18.04;100.00;101219.38;4932830;29;20226;-74
2021/07/23 09:03:37;;;;;;;4.03;3.30;;;;;;;17.72;100.00;101213.19;4901929;29;20210;-74
2021/07/23 09:06:18;;;;;;;6.85;4.40;;;;;;;18.21;100.00;101206.66;4932784;29;20593;-74
2021/07/23 09:08:56;;;;;;;4.10;3.70;;;;;;;17.98;100.00;101204.09;4932043;29;20266;-74
2021/07/23 09:11:27;;;;;;;4.60;3.78;;;;;;;18.11;100.00;101201.34;4918712;29;20230;-73
2021/07/23 09:14:09;;;;;;;4.75;3.85;;;;;;;18.64;100.00;101205.91;4906107;29;20571;-75
2021/07/23 09:16:35;;;;;;;5.30;3.83;;;;;;;18.53;100.00;101201.75;4948620;28;20227;-77
2021/07/23 09:19:10;;;;;;;4.13;3.40;;;;;;;18.72;100.00;101203.22;4932948;29;20183;-75
2021/07/23 09:21:39;;;;;;;2.00;1.80;;;;;;;18.68;100.00;101198.63;4913551;29;20220;-74
2021/07/23 09:24:05;;;;;;;2.15;1.70;;;;;;;19.09;100.00;101192.66;4914219;29;20208;-74
2021/07/23 09:26:41;;;;;;;3.15;2.13;;;;;;;19.02;100.00;101186.78;4916372;29;20227;-74
2021/07/23 09:29:08;;;;;;;3.03;2.17;;;;;;;19.09;100.00;101189.09;4916710;29;20195;-74
2021/07/23 09:31:34;;;;;;;2.00;1.45;;;;;;;18.84;100.00;101183.38;4932616;29;20710;-74
2021/07/23 09:34:05;;;;;;;5.47;1.90;;;;;;;19.01;100.00;101185.16;4948823;29;20574;-74
2021/07/23 09:36:34;;;;;;;2.33;1.52;;;;;;;19.02;100.00;101180.47;4932537;29;20231;-74
2021/07/23 09:39:15;;;;;;;1.50;1.40;;;;;;;19.09;100.00;101181.63;4917303;29;20184;-75
2021/07/23 09:41:40;;;;;;;1.50;1.35;;;;;;;18.60;100.00;101185.63;4916965;29;20251;-74
2021/07/23 09:44:08;;;;;;;1.70;1.60;;;;;;;19.24;100.00;101184.00;4916504;29;20223;-75
2021/07/23 09:46:47;;;;;;;1.80;1.67;;;;;;;19.83;100.00;101176.81;4932053;29;20286;-75
2021/07/23 09:49:21;;;;;;;1.42;1.33;;;;;;;19.58;100.00;101173.94;4917143;29;20239;-77
2021/07/23 09:51:55;;;;;;;1.50;1.40;;;;;;;19.92;100.00;101174.88;4932464;29;20227;-73
2021/07/23 09:54:23;;;;;;;1.42;1.20;;;;;;;20.21;100.00;101162.13;4918304;29;20270;-75
2021/07/23 09:56:53;;;;;;;1.00;1.00;;;;;;;20.01;100.00;101169.41;4933416;28;20251;-75
2021/07/23 09:59:38;;;;;;;1.13;1.02;;;;;;;20.19;100.00;101161.63;4933909;29;20266;-75
2021/07/23 10:02:06;;;;;;;1.00;0.90;;;;;;;19.95;100.00;101165.97;4932036;29;20306;-75
2021/07/23 10:04:45;;;;;;;1.20;1.02;;;;;;;20.07;100.00;101166.16;4901711;29;20693;-76
2021/07/23 10:07:20;;;;;;;1.10;1.00;;;;;;;19.36;100.00;101162.19;4916391;29;20281;-75
2021/07/23 10:09:46;;;;;;;1.30;1.20;;;;;;;19.13;100.00;101166.09;4916691;29;20179;-74
2021/07/23 10:12:12;;;;;;;1.35;1.20;;;;;;;19.29;100.00;101161.81;4915980;29;20230;-73
2021/07/23 10:14:45;;;;;;;2.78;2.03;;;;;;;19.24;100.00;101161.16;4917200;29;20211;-74
2021/07/23 10:17:11;;;;;;;1.77;1.45;;;;;;;19.38;100.00;101159.94;4916174;29;20739;-74
2021/07/23 10:19:37;;;;;;;2.60;2.40;;;;;;;19.25;100.00;101162.75;4918496;29;20188;-75
2021/07/23 10:22:05;;;;;;;2.10;1.90;;;;;;;19.46;100.00;101159.13;4920286;29;20302;-74
2021/07/23 10:24:35;;;;;;;1.65;1.55;;;;;;;19.33;100.00;101152.59;4921518;29;20368;-75
2021/07/23 10:27:09;;;;;;;3.78;2.90;;;;;;;19.34;100.00;101151.47;4936633;29;20223;-74
2021/07/23 10:29:48;;;;;;;4.32;2.70;;;;;;;19.32;100.00;101156.50;4922412;29;20187;-75
2021/07/23 10:32:40;;;;;;;3.15;2.85;;;;;;;19.86;100.00;101154.09;4943258;29;20222;-74
2021/07/23 10:35:14;;;;;;;3.15;2.80;;;;;;;19.93;100.00;101154.44;4922826;29;20215;-74
2021/07/23 10:37:43;;;;;;;4.28;3.10;;;;;;;20.17;100.00;101149.28;4949531;29;20215;-74
2021/07/23 10:40:11;;;;;;;2.88;2.58;;;;;;;20.30;100.00;101153.84;4934403;29;20195;-73
2021/07/23 10:42:43;;;;;;;2.97;2.67;;;;;;;20.25;100.00;101148.47;4935529;29;20188;-74
2021/07/23 10:45:11;;;;;;;3.10;2.72;;;;;;;20.29;100.00;101146.69;4920011;28;20207;-74
2021/07/23 10:47:44;;;;;;;2.72;2.50;;;;;;;20.52;100.00;101148.97;4920075;29;20180;-74
2021/07/23 10:50:25;;;;;;;3.17;2.60;;;;;;;20.30;100.00;101151.09;4934887;29;20194;-74
2021/07/23 10:52:54;;;;;;;3.03;2.45;;;;;;;19.94;100.00;101145.03;4937114;28;20732;-74
2021/07/23 10:55:23;;;;;;;2.85;2.13;;;;;;;20.88;100.00;101134.50;4942707;29;20218;-74
2021/07/23 10:58:07;;;;;;;3.40;2.38;;;;;;;21.16;100.00;101145.97;4904353;29;20180;-79
2021/07/23 11:00:58;;;;;;;2.53;2.33;;;;;;;20.55;100.00;101145.59;4916991;29;20219;-77
2021/07/23 11:03:43;;;;;;;2.38;2.15;;;;;;;20.50;100.00;101146.53;4919397;29;20199;-72
2021/07/23 11:06:27;;;;;;;2.25;2.10;;;;;;;20.80;99.16;101148.31;4941505;28;20752;-71
2021/07/23 11:09:02;;;;;;;3.20;2.88;;;;;;;20.74;100.00;101135.81;4938834;29;20179;-71
2021/07/23 11:11:28;;;;;;;3.00;2.70;;;;;;;20.52;100.00;101141.50;4920346;29;20219;-71
2021/07/23 11:13:54;;;;;;;3.10;2.80;;;;;;;20.20;100.00;101143.13;4920457;29;20206;-72
2021/07/23 11:16:27;;;;;;;3.50;3.20;;;;;;;20.14;100.00;101136.13;4923514;29;20238;-71
2021/07/23 11:18:57;;;;;;;4.25;3.85;;;;;;;19.68;100.00;101135.84;4943006;29;20199;-71
2021/07/23 11:21:34;;;;;;;4.55;4.03;;;;;;;19.88;100.00;101135.28;4899136;29;20216;-72
2021/07/23 11:24:10;;;;;;;4.38;3.97;;;;;;;19.90;100.00;101133.03;4923817;29;20302;-74
2021/07/23 11:26:36;;;;;;;3.80;3.50;;;;;;;19.77;100.00;101131.19;4916517;29;20743;-75